sensor_id;sensor_type;location;lat;lon;timestamp;temperature;humidity
15872;DHT22;8035;51.962;7.162;2023-03-01T00:01:18;-1.90;99.90
15872;DHT22;8035;51.962;7.162;2023-03-01T00:03:44;-1.90;99.90
15872;DHT22;8035;51.962;7.162;2023-03-01T00:06:10;-2.00;99.90
15872;DHT22;8035;51.962;7.162;2023-03-01T00:08:36;-2.00;99.90
15872;DHT22;8035;51.962;7.162;2023-03-01T00:13:40;-2.10;99.90
15872;DHT22;8035;51.962;7.162;2023-03-01T00:16:26;-2.10;99.90
15872;DHT22;8035;51.962;7.162;2023-03-01T00:18:53;-2.10;99.90
15872;DHT22;8035;51.962;7.162;2023-03-01T00:21:20;-2.10;99.90
15872;DHT22;8035;51.962;7.162;2023-03-01T00:23:47;-2.10;99.90
15872;DHT22;8035;51.962;7.162;2023-03-01T00:26:14;-2.10;99.90
15872;DHT22;8035;51.962;7.162;2023-03-01T00:28:41;-2.10;99.90
15872;DHT22;8035;51.962;7.162;2023-03-01T00:31:09;-2.20;99.90
15872;DHT22;8035;51.962;7.162;2023-03-01T00:33:35;-2.10;99.90
15872;DHT22;8035;51.962;7.162;2023-03-01T00:36:02;-2.30;99.90
15872;DHT22;8035;51.962;7.162;2023-03-01T00:38:28;-2.30;99.90
15872;DHT22;8035;51.962;7.162;2023-03-01T00:40:54;-2.30;99.90
15872;DHT22;8035;51.962;7.162;2023-03-01T00:43:19;-2.40;99.90
15872;DHT22;8035;51.962;7.162;2023-03-01T00:45:45;-2.40;99.90
15872;DHT22;8035;51.962;7.162;2023-03-01T00:48:11;-2.40;99.90
15872;DHT22;8035;51.962;7.162;2023-03-01T00:50:36;-2.40;99.90
15872;DHT22;8035;51.962;7.162;2023-03-01T00:53:02;-2.40;99.90
15872;DHT22;8035;51.962;7.162;2023-03-01T00:55:28;-2.50;99.90
15872;DHT22;8035;51.962;7.162;2023-03-01T00:57:54;-2.50;99.90
15872;DHT22;8035;51.962;7.162;2023-03-01T01:00:19;-2.50;99.90
15872;DHT22;8035;51.962;7.162;2023-03-01T01:02:46;-2.50;99.90
15872;DHT22;8035;51.962;7.162;2023-03-01T01:05:12;-2.60;99.90
15872;DHT22;8035;51.962;7.162;2023-03-01T01:07:38;-2.60;99.90
15872;DHT22;8035;51.962;7.162;2023-03-01T01:10:04;-2.60;99.90
15872;DHT22;8035;51.962;7.162;2023-03-01T01:12:30;-2.70;99.90
15872;DHT22;8035;51.962;7.162;2023-03-01T01:14:56;-2.60;99.90
15872;DHT22;8035;51.962;7.162;2023-03-01T01:17:22;-2.60;99.90
15872;DHT22;8035;51.962;7.162;2023-03-01T01:19:47;-2.70;99.90
15872;DHT22;8035;51.962;7.162;2023-03-01T01:22:13;-2.70;99.90
15872;DHT22;8035;51.962;7.162;2023-03-01T01:24:38;-2.70;99.90
15872;DHT22;8035;51.962;7.162;2023-03-01T01:27:04;-2.70;99.90
15872;DHT22;8035;51.962;7.162;2023-03-01T01:29:30;-2.70;99.90
15872;DHT22;8035;51.962;7.162;2023-03-01T01:31:55;-2.70;99.90
15872;DHT22;8035;51.962;7.162;2023-03-01T01:34:21;-2.70;99.90
15872;DHT22;8035;51.962;7.162;2023-03-01T01:36:49;-2.70;99.90
15872;DHT22;8035;51.962;7.162;2023-03-01T01:39:15;-2.80;99.90
15872;DHT22;8035;51.962;7.162;2023-03-01T01:41:42;-2.70;99.90
15872;DHT22;8035;51.962;7.162;2023-03-01T01:44:17;-2.80;99.90
15872;DHT22;8035;51.962;7.162;2023-03-01T01:46:56;-2.80;99.90
15872;DHT22;8035;51.962;7.162;2023-03-01T01:54:56;-2.70;99.90
15872;DHT22;8035;51.962;7.162;2023-03-01T01:57:32;-2.70;99.90
15872;DHT22;8035;51.962;7.162;2023-03-01T02:00:05;-2.80;99.90
15872;DHT22;8035;51.962;7.162;2023-03-01T02:02:31;-2.80;99.90
15872;DHT22;8035;51.962;7.162;2023-03-01T02:07:51;-2.90;99.90
15872;DHT22;8035;51.962;7.162;2023-03-01T02:10:17;-2.90;99.90
15872;DHT22;8035;51.962;7.162;2023-03-01T02:12:44;-2.90;99.90
15872;DHT22;8035;51.962;7.162;2023-03-01T02:15:10;-2.90;99.90
15872;DHT22;8035;51.962;7.162;2023-03-01T02:17:35;-2.90;99.90
15872;DHT22;8035;51.962;7.162;2023-03-01T02:23:03;-2.90;99.90
15872;DHT22;8035;51.962;7.162;2023-03-01T02:30:55;-3.00;99.90
15872;DHT22;8035;51.962;7.162;2023-03-01T02:33:40;-3.10;99.90
15872;DHT22;8035;51.962;7.162;2023-03-01T02:36:14;-3.20;99.90
15872;DHT22;8035;51.962;7.162;2023-03-01T02:38:41;-3.20;99.90
15872;DHT22;8035;51.962;7.162;2023-03-01T02:41:08;-3.20;99.90
15872;DHT22;8035;51.962;7.162;2023-03-01T02:43:35;-3.20;99.90
15872;DHT22;8035;51.962;7.162;2023-03-01T02:46:08;-3.20;99.90
15872;DHT22;8035;51.962;7.162;2023-03-01T02:48:50;-3.20;99.90
15872;DHT22;8035;51.962;7.162;2023-03-01T02:51:34;-3.20;99.90
15872;DHT22;8035;51.962;7.162;2023-03-01T02:54:28;-3.20;99.90
15872;DHT22;8035;51.962;7.162;2023-03-01T02:56:55;-3.20;99.90
15872;DHT22;8035;51.962;7.162;2023-03-01T02:59:24;-3.30;99.90
15872;DHT22;8035;51.962;7.162;2023-03-01T03:01:51;-3.30;99.90
15872;DHT22;8035;51.962;7.162;2023-03-01T03:04:18;-3.30;99.90
15872;DHT22;8035;51.962;7.162;2023-03-01T03:06:45;-3.30;99.90
15872;DHT22;8035;51.962;7.162;2023-03-01T03:09:12;-3.40;99.90
15872;DHT22;8035;51.962;7.162;2023-03-01T03:11:37;-3.30;99.90
15872;DHT22;8035;51.962;7.162;2023-03-01T03:14:05;-3.30;99.90
15872;DHT22;8035;51.962;7.162;2023-03-01T03:16:31;-3.30;99.90
15872;DHT22;8035;51.962;7.162;2023-03-01T03:18:56;-3.30;99.90
15872;DHT22;8035;51.962;7.162;2023-03-01T03:21:34;-3.30;99.90
15872;DHT22;8035;51.962;7.162;2023-03-01T03:24:00;-3.30;99.90
15872;DHT22;8035;51.962;7.162;2023-03-01T03:26:26;-3.30;99.90
15872;DHT22;8035;51.962;7.162;2023-03-01T03:28:51;-3.30;99.90
15872;DHT22;8035;51.962;7.162;2023-03-01T03:31:17;-3.40;99.90
15872;DHT22;8035;51.962;7.162;2023-03-01T03:33:43;-3.40;99.90
15872;DHT22;8035;51.962;7.162;2023-03-01T03:36:09;-3.40;99.90
15872;DHT22;8035;51.962;7.162;2023-03-01T03:38:39;-3.40;99.90
15872;DHT22;8035;51.962;7.162;2023-03-01T03:41:06;-3.50;99.90
15872;DHT22;8035;51.962;7.162;2023-03-01T03:43:35;-3.50;99.90
15872;DHT22;8035;51.962;7.162;2023-03-01T03:46:01;-3.50;99.90
15872;DHT22;8035;51.962;7.162;2023-03-01T03:48:34;-3.50;99.90
15872;DHT22;8035;51.962;7.162;2023-03-01T03:51:00;-3.50;99.90
15872;DHT22;8035;51.962;7.162;2023-03-01T03:53:28;-3.50;99.90
15872;DHT22;8035;51.962;7.162;2023-03-01T03:55:54;-3.50;99.90
15872;DHT22;8035;51.962;7.162;2023-03-01T03:58:22;-3.50;99.90
15872;DHT22;8035;51.962;7.162;2023-03-01T04:00:50;-3.50;99.90
15872;DHT22;8035;51.962;7.162;2023-03-01T04:03:18;-3.50;99.90
15872;DHT22;8035;51.962;7.162;2023-03-01T04:05:45;-3.50;99.90
15872;DHT22;8035;51.962;7.162;2023-03-01T04:08:11;-3.60;99.90
15872;DHT22;8035;51.962;7.162;2023-03-01T04:10:39;-3.50;99.90
15872;DHT22;8035;51.962;7.162;2023-03-01T04:13:07;-3.60;99.90
15872;DHT22;8035;51.962;7.162;2023-03-01T04:15:34;-3.50;99.90
15872;DHT22;8035;51.962;7.162;2023-03-01T04:18:00;-3.60;99.90
15872;DHT22;8035;51.962;7.162;2023-03-01T04:20:28;-3.50;99.90
15872;DHT22;8035;51.962;7.162;2023-03-01T04:22:59;-3.50;99.90
15872;DHT22;8035;51.962;7.162;2023-03-01T04:25:38;-3.60;99.90
15872;DHT22;8035;51.962;7.162;2023-03-01T04:28:05;-3.60;99.90
15872;DHT22;8035;51.962;7.162;2023-03-01T04:33:15;-3.60;99.90
15872;DHT22;8035;51.962;7.162;2023-03-01T04:35:41;-3.60;99.90
15872;DHT22;8035;51.962;7.162;2023-03-01T04:38:07;-3.70;99.90
15872;DHT22;8035;51.962;7.162;2023-03-01T04:40:33;-3.70;99.90
15872;DHT22;8035;51.962;7.162;2023-03-01T04:42:59;-3.70;99.90
15872;DHT22;8035;51.962;7.162;2023-03-01T04:45:25;-3.80;99.90
15872;DHT22;8035;51.962;7.162;2023-03-01T04:47:50;-3.80;99.90
15872;DHT22;8035;51.962;7.162;2023-03-01T04:53:04;-3.80;99.90
15872;DHT22;8035;51.962;7.162;2023-03-01T04:55:30;-3.90;99.90
15872;DHT22;8035;51.962;7.162;2023-03-01T04:57:56;-3.80;99.90
15872;DHT22;8035;51.962;7.162;2023-03-01T05:00:22;-3.80;99.90
15872;DHT22;8035;51.962;7.162;2023-03-01T05:02:55;-3.80;99.90
15872;DHT22;8035;51.962;7.162;2023-03-01T05:05:39;-3.80;99.90
15872;DHT22;8035;51.962;7.162;2023-03-01T05:08:07;-3.80;99.90
15872;DHT22;8035;51.962;7.162;2023-03-01T05:10:34;-3.90;99.90
15872;DHT22;8035;51.962;7.162;2023-03-01T05:13:01;-3.90;99.90
15872;DHT22;8035;51.962;7.162;2023-03-01T05:15:30;-3.90;99.90
15872;DHT22;8035;51.962;7.162;2023-03-01T05:17:58;-3.90;99.90
15872;DHT22;8035;51.962;7.162;2023-03-01T05:20:25;-3.90;99.90
15872;DHT22;8035;51.962;7.162;2023-03-01T05:22:52;-3.90;99.90
15872;DHT22;8035;51.962;7.162;2023-03-01T05:25:20;-3.90;99.90
15872;DHT22;8035;51.962;7.162;2023-03-01T05:27:46;-4.00;99.90
15872;DHT22;8035;51.962;7.162;2023-03-01T05:30:12;-4.00;99.90
15872;DHT22;8035;51.962;7.162;2023-03-01T05:32:47;-3.90;99.90
15872;DHT22;8035;51.962;7.162;2023-03-01T05:35:16;-4.00;99.90
15872;DHT22;8035;51.962;7.162;2023-03-01T05:37:47;-4.00;99.90
15872;DHT22;8035;51.962;7.162;2023-03-01T05:40:21;-4.10;99.90
15872;DHT22;8035;51.962;7.162;2023-03-01T05:42:50;-4.10;99.90
15872;DHT22;8035;51.962;7.162;2023-03-01T05:45:16;-4.10;99.90
15872;DHT22;8035;51.962;7.162;2023-03-01T05:47:44;-4.10;99.90
15872;DHT22;8035;51.962;7.162;2023-03-01T05:50:12;-4.10;99.90
15872;DHT22;8035;51.962;7.162;2023-03-01T05:52:38;-4.00;99.90
15872;DHT22;8035;51.962;7.162;2023-03-01T05:55:04;-4.10;99.90
15872;DHT22;8035;51.962;7.162;2023-03-01T05:57:30;-4.10;99.90
15872;DHT22;8035;51.962;7.162;2023-03-01T05:59:56;-4.10;99.90
15872;DHT22;8035;51.962;7.162;2023-03-01T06:02:21;-4.10;99.90
15872;DHT22;8035;51.962;7.162;2023-03-01T06:04:47;-4.00;99.90
15872;DHT22;8035;51.962;7.162;2023-03-01T06:07:12;-4.00;99.90
15872;DHT22;8035;51.962;7.162;2023-03-01T06:09:38;-4.10;99.90
15872;DHT22;8035;51.962;7.162;2023-03-01T06:12:04;-4.10;99.90
15872;DHT22;8035;51.962;7.162;2023-03-01T06:14:30;-4.10;99.90
15872;DHT22;8035;51.962;7.162;2023-03-01T06:16:57;-4.00;99.90
15872;DHT22;8035;51.962;7.162;2023-03-01T06:19:22;-4.00;99.90
15872;DHT22;8035;51.962;7.162;2023-03-01T06:21:48;-4.00;99.90
15872;DHT22;8035;51.962;7.162;2023-03-01T06:24:14;-4.00;99.90
15872;DHT22;8035;51.962;7.162;2023-03-01T06:26:39;-4.00;99.90
15872;DHT22;8035;51.962;7.162;2023-03-01T06:29:05;-3.90;99.90
15872;DHT22;8035;51.962;7.162;2023-03-01T06:31:30;-3.90;99.90
15872;DHT22;8035;51.962;7.162;2023-03-01T06:33:56;-3.90;99.90
15872;DHT22;8035;51.962;7.162;2023-03-01T06:36:22;-3.80;99.90
15872;DHT22;8035;51.962;7.162;2023-03-01T06:38:47;-3.80;99.90
15872;DHT22;8035;51.962;7.162;2023-03-01T06:41:13;-3.80;99.90
15872;DHT22;8035;51.962;7.162;2023-03-01T06:43:38;-3.80;99.90
15872;DHT22;8035;51.962;7.162;2023-03-01T06:46:05;-3.80;99.90
15872;DHT22;8035;51.962;7.162;2023-03-01T06:48:32;-3.70;99.90
15872;DHT22;8035;51.962;7.162;2023-03-01T06:50:59;-3.60;99.90
15872;DHT22;8035;51.962;7.162;2023-03-01T06:53:27;-3.60;99.90
15872;DHT22;8035;51.962;7.162;2023-03-01T06:55:58;-3.50;99.90
15872;DHT22;8035;51.962;7.162;2023-03-01T06:58:26;-3.50;99.90
15872;DHT22;8035;51.962;7.162;2023-03-01T07:00:52;-3.50;99.90
15872;DHT22;8035;51.962;7.162;2023-03-01T07:03:18;-3.40;99.90
15872;DHT22;8035;51.962;7.162;2023-03-01T07:05:43;-3.30;99.90
15872;DHT22;8035;51.962;7.162;2023-03-01T07:08:10;-3.30;99.90
15872;DHT22;8035;51.962;7.162;2023-03-01T07:10:35;-3.20;99.90
15872;DHT22;8035;51.962;7.162;2023-03-01T07:13:01;-3.20;99.90
15872;DHT22;8035;51.962;7.162;2023-03-01T07:15:28;-3.00;99.90
15872;DHT22;8035;51.962;7.162;2023-03-01T07:17:54;-2.90;99.90
15872;DHT22;8035;51.962;7.162;2023-03-01T07:20:21;-2.90;99.90
15872;DHT22;8035;51.962;7.162;2023-03-01T07:22:51;-2.70;99.90
15872;DHT22;8035;51.962;7.162;2023-03-01T07:25:17;-2.70;99.90
15872;DHT22;8035;51.962;7.162;2023-03-01T07:27:43;-2.60;99.90
15872;DHT22;8035;51.962;7.162;2023-03-01T07:30:09;-2.50;99.90
15872;DHT22;8035;51.962;7.162;2023-03-01T07:32:35;-2.30;99.90
15872;DHT22;8035;51.962;7.162;2023-03-01T07:35:00;-2.20;99.90
15872;DHT22;8035;51.962;7.162;2023-03-01T07:37:26;-2.10;99.90
15872;DHT22;8035;51.962;7.162;2023-03-01T07:39:52;-1.80;99.90
15872;DHT22;8035;51.962;7.162;2023-03-01T07:42:17;-0.90;99.90
15872;DHT22;8035;51.962;7.162;2023-03-01T07:44:43;0.20;99.90
15872;DHT22;8035;51.962;7.162;2023-03-01T07:47:08;1.30;99.90
15872;DHT22;8035;51.962;7.162;2023-03-01T07:49:34;2.30;99.90
15872;DHT22;8035;51.962;7.162;2023-03-01T07:51:59;3.20;99.90
15872;DHT22;8035;51.962;7.162;2023-03-01T07:54:25;4.00;99.90
15872;DHT22;8035;51.962;7.162;2023-03-01T07:56:51;4.70;99.90
15872;DHT22;8035;51.962;7.162;2023-03-01T07:59:17;5.20;99.90
15872;DHT22;8035;51.962;7.162;2023-03-01T08:01:43;5.60;99.90
15872;DHT22;8035;51.962;7.162;2023-03-01T08:04:08;6.00;99.90
15872;DHT22;8035;51.962;7.162;2023-03-01T08:06:35;6.50;99.90
15872;DHT22;8035;51.962;7.162;2023-03-01T08:09:01;6.90;99.90
15872;DHT22;8035;51.962;7.162;2023-03-01T08:11:27;7.30;99.90
15872;DHT22;8035;51.962;7.162;2023-03-01T08:13:55;7.70;99.90
15872;DHT22;8035;51.962;7.162;2023-03-01T08:16:23;7.90;99.90
15872;DHT22;8035;51.962;7.162;2023-03-01T08:18:48;8.10;99.90
15872;DHT22;8035;51.962;7.162;2023-03-01T08:21:16;8.20;99.90
15872;DHT22;8035;51.962;7.162;2023-03-01T08:23:42;8.30;99.90
15872;DHT22;8035;51.962;7.162;2023-03-01T08:26:27;8.50;99.90
15872;DHT22;8035;51.962;7.162;2023-03-01T08:28:52;9.00;99.90
15872;DHT22;8035;51.962;7.162;2023-03-01T08:31:19;9.20;99.90
15872;DHT22;8035;51.962;7.162;2023-03-01T08:33:46;9.30;99.90
15872;DHT22;8035;51.962;7.162;2023-03-01T08:36:21;9.80;99.90
15872;DHT22;8035;51.962;7.162;2023-03-01T08:38:47;10.20;99.90
15872;DHT22;8035;51.962;7.162;2023-03-01T08:41:13;10.60;99.90
15872;DHT22;8035;51.962;7.162;2023-03-01T08:43:38;11.00;99.90
15872;DHT22;8035;51.962;7.162;2023-03-01T08:46:04;11.00;99.90
15872;DHT22;8035;51.962;7.162;2023-03-01T08:48:30;11.40;99.90
15872;DHT22;8035;51.962;7.162;2023-03-01T08:50:55;11.60;99.90
15872;DHT22;8035;51.962;7.162;2023-03-01T08:53:21;11.70;99.90
15872;DHT22;8035;51.962;7.162;2023-03-01T08:55:47;12.00;99.90
15872;DHT22;8035;51.962;7.162;2023-03-01T08:58:12;12.10;99.90
15872;DHT22;8035;51.962;7.162;2023-03-01T09:00:38;12.10;99.90
15872;DHT22;8035;51.962;7.162;2023-03-01T09:03:04;12.00;99.90
15872;DHT22;8035;51.962;7.162;2023-03-01T09:05:33;12.20;99.90
15872;DHT22;8035;51.962;7.162;2023-03-01T09:07:59;12.40;99.90
15872;DHT22;8035;51.962;7.162;2023-03-01T09:10:25;12.50;99.90
15872;DHT22;8035;51.962;7.162;2023-03-01T09:12:51;12.60;99.60
15872;DHT22;8035;51.962;7.162;2023-03-01T09:15:17;12.80;99.10
15872;DHT22;8035;51.962;7.162;2023-03-01T09:17:42;12.70;98.40
15872;DHT22;8035;51.962;7.162;2023-03-01T09:20:09;13.00;98.10
15872;DHT22;8035;51.962;7.162;2023-03-01T09:22:35;12.80;97.20
15872;DHT22;8035;51.962;7.162;2023-03-01T09:25:01;12.40;96.80
15872;DHT22;8035;51.962;7.162;2023-03-01T09:27:27;12.20;97.00
15872;DHT22;8035;51.962;7.162;2023-03-01T09:29:52;12.30;96.80
15872;DHT22;8035;51.962;7.162;2023-03-01T09:32:18;12.60;96.40
15872;DHT22;8035;51.962;7.162;2023-03-01T09:34:44;12.80;96.30
15872;DHT22;8035;51.962;7.162;2023-03-01T09:37:28;13.00;96.00
15872;DHT22;8035;51.962;7.162;2023-03-01T09:39:53;12.80;95.60
15872;DHT22;8035;51.962;7.162;2023-03-01T09:45:11;11.60;95.30
15872;DHT22;8035;51.962;7.162;2023-03-01T09:47:40;11.20;96.10
15872;DHT22;8035;51.962;7.162;2023-03-01T09:50:12;10.40;95.40
15872;DHT22;8035;51.962;7.162;2023-03-01T09:52:48;9.90;96.50
15872;DHT22;8035;51.962;7.162;2023-03-01T09:55:25;9.60;96.90
15872;DHT22;8035;51.962;7.162;2023-03-01T09:58:05;9.50;97.40
15872;DHT22;8035;51.962;7.162;2023-03-01T10:00:42;9.50;97.10
15872;DHT22;8035;51.962;7.162;2023-03-01T10:03:11;9.30;96.90
15872;DHT22;8035;51.962;7.162;2023-03-01T10:08:37;8.70;97.30
15872;DHT22;8035;51.962;7.162;2023-03-01T10:11:08;8.50;97.00
15872;DHT22;8035;51.962;7.162;2023-03-01T10:19:44;8.90;98.30
15872;DHT22;8035;51.962;7.162;2023-03-01T10:22:29;9.20;98.40
15872;DHT22;8035;51.962;7.162;2023-03-01T10:24:59;9.30;97.50
15872;DHT22;8035;51.962;7.162;2023-03-01T10:27:26;9.20;97.40
15872;DHT22;8035;51.962;7.162;2023-03-01T10:32:31;9.20;97.50
15872;DHT22;8035;51.962;7.162;2023-03-01T10:34:57;9.30;97.80
15872;DHT22;8035;51.962;7.162;2023-03-01T10:37:22;9.10;98.00
15872;DHT22;8035;51.962;7.162;2023-03-01T10:40:09;9.10;97.90
15872;DHT22;8035;51.962;7.162;2023-03-01T10:42:39;9.30;98.10
15872;DHT22;8035;51.962;7.162;2023-03-01T10:45:31;9.60;97.50
15872;DHT22;8035;51.962;7.162;2023-03-01T10:51:12;9.50;96.50
15872;DHT22;8035;51.962;7.162;2023-03-01T10:53:43;9.40;95.90
15872;DHT22;8035;51.962;7.162;2023-03-01T10:56:14;9.20;96.10
15872;DHT22;8035;51.962;7.162;2023-03-01T10:59:02;9.20;96.40
15872;DHT22;8035;51.962;7.162;2023-03-01T11:01:35;9.50;96.70
15872;DHT22;8035;51.962;7.162;2023-03-01T11:06:37;9.50;96.60
15872;DHT22;8035;51.962;7.162;2023-03-01T11:09:21;9.50;96.30
15872;DHT22;8035;51.962;7.162;2023-03-01T11:12:13;9.60;96.20
15872;DHT22;8035;51.962;7.162;2023-03-01T11:14:55;9.30;95.90
15872;DHT22;8035;51.962;7.162;2023-03-01T11:17:25;9.40;96.60
15872;DHT22;8035;51.962;7.162;2023-03-01T11:22:51;10.00;96.20
15872;DHT22;8035;51.962;7.162;2023-03-01T11:25:20;10.30;96.30
15872;DHT22;8035;51.962;7.162;2023-03-01T11:27:48;10.70;95.60
15872;DHT22;8035;51.962;7.162;2023-03-01T11:33:46;10.60;95.20
15872;DHT22;8035;51.962;7.162;2023-03-01T11:38:53;10.50;94.80
15872;DHT22;8035;51.962;7.162;2023-03-01T11:41:39;10.70;95.20
15872;DHT22;8035;51.962;7.162;2023-03-01T11:44:23;10.40;94.90
15872;DHT22;8035;51.962;7.162;2023-03-01T12:26:13;10.30;94.40
15872;DHT22;8035;51.962;7.162;2023-03-01T12:39:58;11.00;94.30
15872;DHT22;8035;51.962;7.162;2023-03-01T12:50:55;11.00;93.40
15872;DHT22;8035;51.962;7.162;2023-03-01T12:53:35;11.10;92.70
15872;DHT22;8035;51.962;7.162;2023-03-01T12:56:06;10.90;92.80
15872;DHT22;8035;51.962;7.162;2023-03-01T13:09:32;10.30;92.30
15872;DHT22;8035;51.962;7.162;2023-03-01T13:11:59;10.00;91.90
15872;DHT22;8035;51.962;7.162;2023-03-01T13:16:54;10.00;92.60
15872;DHT22;8035;51.962;7.162;2023-03-01T13:19:25;9.80;92.70
15872;DHT22;8035;51.962;7.162;2023-03-01T13:21:53;9.90;92.70
15872;DHT22;8035;51.962;7.162;2023-03-01T13:32:21;10.50;92.20
15872;DHT22;8035;51.962;7.162;2023-03-01T13:34:49;10.50;92.70
15872;DHT22;8035;51.962;7.162;2023-03-01T13:37:21;10.50;92.20
15872;DHT22;8035;51.962;7.162;2023-03-01T13:39:47;10.30;92.50
15872;DHT22;8035;51.962;7.162;2023-03-01T13:42:34;10.20;93.00
15872;DHT22;8035;51.962;7.162;2023-03-01T13:45:03;10.10;93.50
15872;DHT22;8035;51.962;7.162;2023-03-01T13:50:54;10.50;93.80
15872;DHT22;8035;51.962;7.162;2023-03-01T13:53:25;10.40;93.90
15872;DHT22;8035;51.962;7.162;2023-03-01T13:56:00;10.30;94.10
15872;DHT22;8035;51.962;7.162;2023-03-01T14:01:04;10.40;92.60
15872;DHT22;8035;51.962;7.162;2023-03-01T14:03:31;10.30;93.10
15872;DHT22;8035;51.962;7.162;2023-03-01T14:06:01;10.40;93.40
15872;DHT22;8035;51.962;7.162;2023-03-01T14:08:29;10.30;93.10
15872;DHT22;8035;51.962;7.162;2023-03-01T14:21:29;9.90;94.00
15872;DHT22;8035;51.962;7.162;2023-03-01T14:23:57;9.90;93.90
15872;DHT22;8035;51.962;7.162;2023-03-01T14:26:23;9.80;94.00
15872;DHT22;8035;51.962;7.162;2023-03-01T14:28:49;9.60;93.60
15872;DHT22;8035;51.962;7.162;2023-03-01T14:31:36;9.40;94.00
15872;DHT22;8035;51.962;7.162;2023-03-01T14:34:02;9.40;94.10
15872;DHT22;8035;51.962;7.162;2023-03-01T14:36:30;9.20;93.40
15872;DHT22;8035;51.962;7.162;2023-03-01T14:38:56;9.00;93.70
15872;DHT22;8035;51.962;7.162;2023-03-01T14:41:32;8.90;93.40
15872;DHT22;8035;51.962;7.162;2023-03-01T14:44:11;9.00;93.90
15872;DHT22;8035;51.962;7.162;2023-03-01T14:46:38;9.10;94.00
15872;DHT22;8035;51.962;7.162;2023-03-01T14:49:17;9.10;94.50
15872;DHT22;8035;51.962;7.162;2023-03-01T14:52:02;9.30;94.20
15872;DHT22;8035;51.962;7.162;2023-03-01T14:54:44;9.30;94.40
15872;DHT22;8035;51.962;7.162;2023-03-01T14:57:25;9.30;94.40
15872;DHT22;8035;51.962;7.162;2023-03-01T14:59:57;9.10;93.30
15872;DHT22;8035;51.962;7.162;2023-03-01T15:02:25;9.00;93.20
15872;DHT22;8035;51.962;7.162;2023-03-01T15:04:56;9.10;93.10
15872;DHT22;8035;51.962;7.162;2023-03-01T15:07:27;9.10;92.00
15872;DHT22;8035;51.962;7.162;2023-03-01T15:09:54;9.10;92.30
15872;DHT22;8035;51.962;7.162;2023-03-01T15:12:40;9.10;92.40
15872;DHT22;8035;51.962;7.162;2023-03-01T15:17:58;8.80;92.60
15872;DHT22;8035;51.962;7.162;2023-03-01T15:20:27;8.90;92.80
15872;DHT22;8035;51.962;7.162;2023-03-01T15:22:55;8.80;93.10
15872;DHT22;8035;51.962;7.162;2023-03-01T15:25:24;8.90;93.20
15872;DHT22;8035;51.962;7.162;2023-03-01T15:27:52;8.60;92.60
15872;DHT22;8035;51.962;7.162;2023-03-01T15:30:21;8.50;93.00
15872;DHT22;8035;51.962;7.162;2023-03-01T15:32:48;8.40;93.30
15872;DHT22;8035;51.962;7.162;2023-03-01T15:35:51;8.20;93.40
15872;DHT22;8035;51.962;7.162;2023-03-01T15:38:50;8.30;93.70
15872;DHT22;8035;51.962;7.162;2023-03-01T15:41:25;8.10;93.50
15872;DHT22;8035;51.962;7.162;2023-03-01T15:43:51;8.00;93.50
15872;DHT22;8035;51.962;7.162;2023-03-01T15:46:32;8.00;93.60
15872;DHT22;8035;51.962;7.162;2023-03-01T15:49:02;7.80;93.70
15872;DHT22;8035;51.962;7.162;2023-03-01T15:51:36;7.60;93.80
15872;DHT22;8035;51.962;7.162;2023-03-01T15:54:17;7.60;94.10
15872;DHT22;8035;51.962;7.162;2023-03-01T15:56:43;7.50;94.20
15872;DHT22;8035;51.962;7.162;2023-03-01T15:59:11;7.50;94.30
15872;DHT22;8035;51.962;7.162;2023-03-01T16:01:44;7.50;94.20
15872;DHT22;8035;51.962;7.162;2023-03-01T16:04:11;7.40;93.90
15872;DHT22;8035;51.962;7.162;2023-03-01T16:06:49;7.30;94.10
15872;DHT22;8035;51.962;7.162;2023-03-01T16:09:22;7.20;94.00
15872;DHT22;8035;51.962;7.162;2023-03-01T16:11:49;7.10;94.10
15872;DHT22;8035;51.962;7.162;2023-03-01T16:14:15;7.00;94.30
15872;DHT22;8035;51.962;7.162;2023-03-01T16:16:42;7.00;94.60
15872;DHT22;8035;51.962;7.162;2023-03-01T16:19:07;6.90;95.10
15872;DHT22;8035;51.962;7.162;2023-03-01T16:21:33;6.80;95.00
15872;DHT22;8035;51.962;7.162;2023-03-01T16:23:58;6.60;95.30
15872;DHT22;8035;51.962;7.162;2023-03-01T16:26:24;6.50;95.50
15872;DHT22;8035;51.962;7.162;2023-03-01T16:28:50;6.40;95.70
15872;DHT22;8035;51.962;7.162;2023-03-01T16:31:19;6.30;96.00
15872;DHT22;8035;51.962;7.162;2023-03-01T16:33:45;6.40;96.10
15872;DHT22;8035;51.962;7.162;2023-03-01T16:36:15;6.30;96.30
15872;DHT22;8035;51.962;7.162;2023-03-01T16:38:41;6.20;96.40
15872;DHT22;8035;51.962;7.162;2023-03-01T16:41:12;6.10;96.50
15872;DHT22;8035;51.962;7.162;2023-03-01T16:43:38;6.00;96.60
15872;DHT22;8035;51.962;7.162;2023-03-01T16:46:13;6.10;96.60
15872;DHT22;8035;51.962;7.162;2023-03-01T16:48:39;6.00;96.60
15872;DHT22;8035;51.962;7.162;2023-03-01T16:51:06;5.90;96.60
15872;DHT22;8035;51.962;7.162;2023-03-01T16:53:33;5.80;96.70
15872;DHT22;8035;51.962;7.162;2023-03-01T16:56:02;5.70;96.70
15872;DHT22;8035;51.962;7.162;2023-03-01T16:58:28;5.60;96.90
15872;DHT22;8035;51.962;7.162;2023-03-01T17:00:55;5.60;97.00
15872;DHT22;8035;51.962;7.162;2023-03-01T17:03:23;5.60;97.20
15872;DHT22;8035;51.962;7.162;2023-03-01T17:05:49;5.60;97.20
15872;DHT22;8035;51.962;7.162;2023-03-01T17:08:15;5.60;97.30
15872;DHT22;8035;51.962;7.162;2023-03-01T17:10:42;5.50;97.40
15872;DHT22;8035;51.962;7.162;2023-03-01T17:13:08;5.60;97.50
15872;DHT22;8035;51.962;7.162;2023-03-01T17:15:37;5.50;97.60
15872;DHT22;8035;51.962;7.162;2023-03-01T17:18:03;5.40;97.60
15872;DHT22;8035;51.962;7.162;2023-03-01T17:20:28;5.30;97.90
15872;DHT22;8035;51.962;7.162;2023-03-01T17:22:54;5.10;98.20
15872;DHT22;8035;51.962;7.162;2023-03-01T17:25:20;5.00;98.50
15872;DHT22;8035;51.962;7.162;2023-03-01T17:27:45;4.90;98.70
15872;DHT22;8035;51.962;7.162;2023-03-01T17:30:12;4.90;98.70
15872;DHT22;8035;51.962;7.162;2023-03-01T17:32:38;4.90;98.80
15872;DHT22;8035;51.962;7.162;2023-03-01T17:35:05;4.80;98.90
15872;DHT22;8035;51.962;7.162;2023-03-01T17:37:30;4.80;98.90
15872;DHT22;8035;51.962;7.162;2023-03-01T17:39:56;4.80;99.10
15872;DHT22;8035;51.962;7.162;2023-03-01T17:42:22;4.70;99.20
15872;DHT22;8035;51.962;7.162;2023-03-01T17:44:48;4.70;99.20
15872;DHT22;8035;51.962;7.162;2023-03-01T17:47:13;4.60;99.40
15872;DHT22;8035;51.962;7.162;2023-03-01T17:49:39;4.50;99.50
15872;DHT22;8035;51.962;7.162;2023-03-01T17:52:05;4.50;99.60
15872;DHT22;8035;51.962;7.162;2023-03-01T17:54:31;4.40;99.70
15872;DHT22;8035;51.962;7.162;2023-03-01T17:56:57;4.30;99.90
15872;DHT22;8035;51.962;7.162;2023-03-01T17:59:23;4.20;99.90
15872;DHT22;8035;51.962;7.162;2023-03-01T18:01:49;4.10;99.90
15872;DHT22;8035;51.962;7.162;2023-03-01T18:04:15;4.10;99.90
15872;DHT22;8035;51.962;7.162;2023-03-01T18:06:42;4.00;99.90
15872;DHT22;8035;51.962;7.162;2023-03-01T18:09:08;4.10;99.90
15872;DHT22;8035;51.962;7.162;2023-03-01T18:11:34;4.00;99.90
15872;DHT22;8035;51.962;7.162;2023-03-01T18:14:00;4.00;99.90
15872;DHT22;8035;51.962;7.162;2023-03-01T18:16:26;4.00;99.90
15872;DHT22;8035;51.962;7.162;2023-03-01T18:18:54;4.00;99.90
15872;DHT22;8035;51.962;7.162;2023-03-01T18:21:20;4.00;99.90
15872;DHT22;8035;51.962;7.162;2023-03-01T18:23:47;4.00;99.90
15872;DHT22;8035;51.962;7.162;2023-03-01T18:26:13;3.90;99.90
15872;DHT22;8035;51.962;7.162;2023-03-01T18:28:42;3.80;99.90
15872;DHT22;8035;51.962;7.162;2023-03-01T18:31:13;3.80;99.90
15872;DHT22;8035;51.962;7.162;2023-03-01T18:33:39;3.80;99.90
15872;DHT22;8035;51.962;7.162;2023-03-01T18:36:16;3.80;99.90